Friday, May 25, 2018, 8:29 PM EDT
Back to Local

KPSM, Pease Air Force Base / Portsmouth

Location: Portsmouth, NH, United States Lat: 43.083
Local Time: 8:29 PM EDT ( 0:29 GMT) Lon: -70.817
Time Zone: US/Eastern Elev: 101 ft

Show me the last for .
Show Decoded

2018-05-25 19:56 METAR KPSM 252356Z 26003KT 10SM SCT095 BKN140 BKN250 27/08 A2970 RMK AO2A SLP059
                 T02650080 10314 20265 53001 =
2018-05-25 18:56 METAR KPSM 252256Z 24005KT 10SM BKN095 BKN150 BKN250 28/08 A2969 RMK AO2A SLP056
                 T02750084 =
2018-05-25 17:56 METAR KPSM 252156Z 25007KT 10SM SCT110 BKN250 29/09 A2969 RMK AO2A SLP056
                 T02890085 =
2018-05-25 16:56 METAR KPSM 252056Z 25012G22KT 10SM BKN110 BKN250 30/07 A2969 RMK AO2A SLP056
                 T02950068 56012 =
2018-05-25 15:56 METAR KPSM 251956Z 26012KT 10SM FEW120 SCT180 BKN250 30/06 A2970 RMK AO2A SLP059
                 T03040056 =
2018-05-25 14:56 METAR KPSM 251856Z 25013G18KT 10SM FEW170 SCT190 BKN250 31/06 A2971 RMK AO2A
                 SLP062 T03100061 =
2018-05-25 13:56 METAR KPSM 251756Z 27015KT 10SM FEW160 SCT190 BKN250 29/06 A2973 RMK AO2A SLP069
                 T02940061 10308 20181 57030 =
2018-05-25 12:56 METAR KPSM 251656Z 24011KT 7SM FEW140 SCT190 BKN250 29/09 A2976 RMK AO2A SLP080
                 T02930094 =
2018-05-25 11:56 METAR KPSM 251556Z 24013G17KT 7SM FEW150 SCT190 BKN250 28/10 A2979 RMK AO2A
                 SLP090 T02810098 =
2018-05-25 10:56 METAR KPSM 251456Z 25010G19KT 7SM SCT200 26/11 A2982 RMK AO2A SLP100 T02640105
                 57020 =
2018-05-25 09:56 METAR KPSM 251356Z 25012G19KT 10SM CLR 24/10 A2984 RMK AO2A SLP107 T02410104 =
2018-05-25 08:56 METAR KPSM 251256Z 25008KT 7SM CLR 21/11 A2986 RMK AO2A SLP114 T02100110 =
2018-05-25 07:56 METAR KPSM 251156Z 24003KT 10SM FEW250 18/11 A2988 RMK AO2A SLP120 T01800113
                 10180 20122 58005 =
2018-05-25 06:56 METAR KPSM 251056Z 23008KT 10SM FEW250 16/10 A2988 RMK AO2A SLP120 T01570102 =
2018-05-25 05:56 METAR KPSM 250956Z 22007KT 10SM FEW250 14/10 A2990 RMK AO2A SLP128 T01350095 =
2018-05-25 04:56 METAR KPSM 250856Z 22004KT 10SM FEW250 13/10 A2989 RMK AO2A SLP124 T01300096
                 57019 =
2018-05-25 03:56 METAR KPSM 250756Z 23006KT 10SM FEW250 13/10 A2990 RMK AO2A SLP127 T01270095 =
2018-05-25 02:56 METAR KPSM 250656Z 24007KT 10SM FEW250 13/10 A2993 RMK AO2A SLP137 T01250095 =
2018-05-25 01:56 METAR KPSM 250556Z 24006KT 10SM FEW250 12/09 A2995 RMK AO2A SLP144 T01230093
                 10140 20118 57021 =
2018-05-25 00:56 METAR KPSM 250456Z 22005KT 10SM FEW250 12/09 A2998 RMK AO2A SLP154 T01180088
                 401630089 =
2018-05-24 23:56 METAR KPSM 250356Z 20005KT 10SM FEW250 13/09 A3000 RMK AO2A SLP161 T01260089 =
2018-05-24 22:56 METAR KPSM 250256Z 21006KT 10SM FEW250 13/09 A3001 RMK AO2A SLP165 T01330092
                 58004 =
2018-05-24 21:56 METAR KPSM 250156Z 18004KT 10SM FEW250 13/09 A3002 RMK AO2A SLP168 T01280094 =
2018-05-24 20:56 METAR KPSM 250056Z 16004KT 10SM FEW250 13/09 A3003 RMK AO2A SLP171 T01270090 =

Support USWX by starting your Amazon purchase here.